createdAt,value
2022-09-27T03:03:10.010Z,10.90
2022-09-27T03:05:54.928Z,10.90
2022-09-27T03:08:22.238Z,11.00
2022-09-27T03:10:49.536Z,11.00
2022-09-27T03:13:16.798Z,11.00
2022-09-27T03:15:44.099Z,10.90
2022-09-27T03:18:11.326Z,11.00
2022-09-27T03:20:38.549Z,11.10
2022-09-27T03:23:05.736Z,11.10
2022-09-27T03:25:32.974Z,11.10
2022-09-27T03:28:00.240Z,11.00
2022-09-27T03:30:27.483Z,11.00
2022-09-27T03:32:54.708Z,10.90
2022-09-27T03:35:21.957Z,10.80
2022-09-27T03:37:49.557Z,10.80
2022-09-27T03:40:17.455Z,10.70
2022-09-27T03:42:49.468Z,10.70
2022-09-27T03:45:17.979Z,10.70
2022-09-27T03:47:45.179Z,10.70
2022-09-27T03:50:13.036Z,10.70
2022-09-27T03:52:40.327Z,10.80
2022-09-27T03:55:07.826Z,10.80
2022-09-27T03:57:35.200Z,10.70
2022-09-27T04:00:03.042Z,10.60
2022-09-27T04:02:30.320Z,10.60
2022-09-27T04:04:57.590Z,10.70
2022-09-27T04:07:24.821Z,10.70
2022-09-27T04:09:52.025Z,10.60
2022-09-27T04:12:19.373Z,10.50
2022-09-27T04:14:46.584Z,10.50
2022-09-27T04:17:13.868Z,10.50
2022-09-27T04:19:41.100Z,10.50
2022-09-27T04:22:08.358Z,10.50
2022-09-27T04:24:35.533Z,10.40
2022-09-27T04:27:02.749Z,10.40
2022-09-27T04:29:30.000Z,10.30
2022-09-27T04:31:57.213Z,10.20
2022-09-27T04:34:45.965Z,10.20
2022-09-27T04:37:13.960Z,10.20
2022-09-27T04:39:41.174Z,10.20
2022-09-27T04:42:09.320Z,10.10
2022-09-27T04:44:36.496Z,10.10
2022-09-27T04:47:03.835Z,10.20
2022-09-27T04:49:31.027Z,10.30
2022-09-27T04:51:58.222Z,10.20
2022-09-27T04:54:25.527Z,10.10
2022-09-27T04:56:52.805Z,10.20
2022-09-27T04:59:20.132Z,10.10
2022-09-27T05:01:47.530Z,10.10
2022-09-27T05:04:15.389Z,10.10
2022-09-27T05:06:42.642Z,10.00
2022-09-27T05:09:09.845Z,10.10
2022-09-27T05:11:38.097Z,10.10
2022-09-27T05:14:05.894Z,10.10
2022-09-27T05:16:34.435Z,10.10
2022-09-27T05:19:02.313Z,10.10
2022-09-27T05:21:29.522Z,10.10
2022-09-27T05:23:56.817Z,10.10
2022-09-27T05:26:23.981Z,10.10
2022-09-27T05:28:51.248Z,10.10
2022-09-27T05:31:18.573Z,10.20
2022-09-27T05:33:45.846Z,10.30
2022-09-27T05:36:13.125Z,10.40
2022-09-27T05:38:41.840Z,10.40
2022-09-27T05:41:09.396Z,10.50
2022-09-27T05:43:36.643Z,10.50
2022-09-27T05:46:05.468Z,10.40
2022-09-27T05:48:32.831Z,10.50
2022-09-27T05:51:00.095Z,10.50
2022-09-27T05:53:27.347Z,10.40
2022-09-27T05:55:54.699Z,10.40
2022-09-27T05:58:21.930Z,10.40
2022-09-27T06:00:49.205Z,10.50
2022-09-27T06:03:17.263Z,10.50
2022-09-27T06:05:47.949Z,10.50
2022-09-27T06:08:20.287Z,10.50
2022-09-27T06:10:47.990Z,10.60
2022-09-27T06:13:16.495Z,10.60
2022-09-27T06:15:45.286Z,10.70
2022-09-27T06:18:18.030Z,10.60
2022-09-27T06:20:45.811Z,10.60
2022-09-27T06:23:16.203Z,10.50
2022-09-27T06:25:43.508Z,10.40
2022-09-27T06:28:11.549Z,10.10
2022-09-27T06:30:41.471Z,9.90
2022-09-27T06:33:12.702Z,9.90
2022-09-27T06:35:41.943Z,9.80
2022-09-27T06:38:15.580Z,9.80
2022-09-27T06:40:47.040Z,9.90
2022-09-27T06:43:20.485Z,9.80
2022-09-27T06:45:47.978Z,10.00
2022-09-27T06:48:17.123Z,10.20
2022-09-27T06:50:46.518Z,10.10
2022-09-27T06:53:16.089Z,10.10
2022-09-27T06:55:43.349Z,10.20
2022-09-27T06:58:30.338Z,10.10
2022-09-27T07:00:58.732Z,10.10
2022-09-27T07:03:38.909Z,10.30
2022-09-27T07:06:16.441Z,10.60
2022-09-27T07:08:43.864Z,10.70
2022-09-27T07:11:11.036Z,10.80
2022-09-27T07:13:42.780Z,10.80
2022-09-27T07:16:16.252Z,10.80
2022-09-27T07:18:43.770Z,10.80
2022-09-27T07:21:12.555Z,10.80
2022-09-27T07:23:39.798Z,10.80
2022-09-27T07:26:08.398Z,10.80
2022-09-27T07:28:35.972Z,10.80
2022-09-27T07:31:04.041Z,10.70
2022-09-27T07:33:32.372Z,10.60
2022-09-27T07:35:59.701Z,10.50
2022-09-27T07:38:27.123Z,10.60
2022-09-27T07:40:54.410Z,10.50
2022-09-27T07:43:21.704Z,10.60
2022-09-27T07:45:49.214Z,10.50
2022-09-27T07:48:17.240Z,10.50
2022-09-27T07:50:44.625Z,10.20
2022-09-27T07:53:13.775Z,10.30
2022-09-27T07:55:42.340Z,10.50
2022-09-27T07:58:11.723Z,10.60
2022-09-27T08:00:40.802Z,10.60
2022-09-27T08:03:16.656Z,10.60
2022-09-27T08:05:45.696Z,10.50
2022-09-27T08:08:13.920Z,10.70
2022-09-27T08:10:44.350Z,11.00
2022-09-27T08:13:11.963Z,11.00
2022-09-27T08:15:39.196Z,11.10
2022-09-27T08:18:09.389Z,11.30
2022-09-27T08:20:36.944Z,11.70
2022-09-27T08:23:04.301Z,11.70
2022-09-27T08:25:31.953Z,11.80
2022-09-27T08:28:01.483Z,11.50
2022-09-27T08:30:31.146Z,11.90
2022-09-27T08:32:59.735Z,11.90
2022-09-27T08:35:29.198Z,11.70
2022-09-27T08:37:59.007Z,11.50
2022-09-27T08:40:48.697Z,11.50
2022-09-27T08:43:28.107Z,11.60
2022-09-27T08:46:22.923Z,11.60
2022-09-27T08:48:57.521Z,11.70
2022-09-27T08:51:31.458Z,11.50
2022-09-27T08:54:08.216Z,11.60
2022-09-27T08:56:36.438Z,11.30
2022-09-27T08:59:14.663Z,11.10
2022-09-27T09:01:42.732Z,11.00
2022-09-27T09:04:12.124Z,10.70
2022-09-27T09:07:29.768Z,10.50
2022-09-27T09:10:39.950Z,10.50
2022-09-27T09:13:19.753Z,10.50
2022-09-27T09:16:15.975Z,10.50
2022-09-27T09:18:59.281Z,10.40
2022-09-27T09:21:29.192Z,10.10
2022-09-27T09:24:02.064Z,9.90
2022-09-27T09:26:50.218Z,9.90
2022-09-27T09:29:54.827Z,9.90
2022-09-27T09:32:34.663Z,10.00
2022-09-27T09:35:07.048Z,9.90
2022-09-27T09:37:49.831Z,9.80
2022-09-27T09:40:31.320Z,9.70
2022-09-27T09:43:18.470Z,9.80
2022-09-27T09:45:50.536Z,9.70
2022-09-27T09:48:53.441Z,9.50
2022-09-27T09:51:27.301Z,9.10
2022-09-27T09:54:13.841Z,9.10
2022-09-27T09:56:47.705Z,9.20
2022-09-27T09:59:25.782Z,9.10
2022-09-27T10:01:55.934Z,9.30
2022-09-27T10:04:28.803Z,9.60
2022-09-27T10:06:59.127Z,9.70
2022-09-27T10:09:28.428Z,9.90
2022-09-27T10:11:55.974Z,10.10
2022-09-27T10:14:23.280Z,10.10
2022-09-27T10:16:59.512Z,10.10
2022-09-27T10:19:35.510Z,10.30
2022-09-27T10:22:12.224Z,10.60
2022-09-27T10:25:10.850Z,10.90
2022-09-27T10:27:42.540Z,11.00
2022-09-27T10:30:33.970Z,11.10
2022-09-27T10:33:06.792Z,11.30
2022-09-27T10:35:37.736Z,11.60
2022-09-27T10:38:21.206Z,11.50
2022-09-27T10:40:50.228Z,11.30
2022-09-27T10:43:37.765Z,11.30
2022-09-27T10:46:27.207Z,11.20
2022-09-27T10:49:25.341Z,10.90
2022-09-27T10:52:02.475Z,10.80
2022-09-27T10:54:37.901Z,11.00
2022-09-27T10:57:25.455Z,11.10
2022-09-27T11:00:02.616Z,10.90
2022-09-27T11:02:33.942Z,11.20
2022-09-27T11:05:16.203Z,11.20
2022-09-27T11:07:57.881Z,11.20
2022-09-27T11:10:34.025Z,11.30
2022-09-27T11:13:16.663Z,11.30
2022-09-27T11:15:55.741Z,11.00
2022-09-27T11:18:43.688Z,11.00
2022-09-27T11:21:32.840Z,11.20
2022-09-27T11:24:08.788Z,11.40
2022-09-27T11:26:47.918Z,11.60
2022-09-27T11:29:26.541Z,11.90
2022-09-27T11:32:15.129Z,12.40
2022-09-27T11:34:54.127Z,12.60
2022-09-27T11:37:30.216Z,12.90
2022-09-27T11:40:31.987Z,13.20
2022-09-27T11:43:08.445Z,13.50
2022-09-27T11:46:17.905Z,13.60
2022-09-27T11:49:28.331Z,13.60
2022-09-27T11:52:20.220Z,13.50
2022-09-27T11:55:09.260Z,13.30
2022-09-27T11:57:45.213Z,13.10
2022-09-27T12:00:18.504Z,12.70
2022-09-27T12:02:45.649Z,12.60
2022-09-27T12:05:31.407Z,12.70
2022-09-27T12:08:06.040Z,12.90
2022-09-27T12:10:35.793Z,13.00
2022-09-27T12:13:04.381Z,13.00
2022-09-27T12:15:36.541Z,12.90
2022-09-27T12:18:39.351Z,12.60
2022-09-27T12:21:09.666Z,12.50
2022-09-27T12:24:06.218Z,12.40
2022-09-27T12:26:39.855Z,12.10
2022-09-27T12:29:22.105Z,11.80
2022-09-27T12:32:02.022Z,11.60
2022-09-27T12:34:39.953Z,11.50
2022-09-27T12:37:16.953Z,11.40
2022-09-27T12:39:59.924Z,11.20
2022-09-27T12:42:59.064Z,11.10
2022-09-27T12:45:39.964Z,10.80
2022-09-27T12:48:35.858Z,10.50
2022-09-27T12:51:24.175Z,10.40
2022-09-27T12:53:56.932Z,10.30
2022-09-27T12:56:32.813Z,10.20
2022-09-27T12:59:12.014Z,10.10
2022-09-27T13:02:00.281Z,10.30
2022-09-27T13:04:53.958Z,10.30
2022-09-27T13:07:52.578Z,10.40
2022-09-27T13:10:46.166Z,10.00
2022-09-27T13:13:16.879Z,9.50
2022-09-27T13:15:46.409Z,9.40
2022-09-27T13:18:38.055Z,9.30
2022-09-27T13:21:07.207Z,9.20
2022-09-27T13:23:40.319Z,9.50
2022-09-27T13:26:09.687Z,9.90
2022-09-27T13:28:48.669Z,10.30
2022-09-27T13:31:16.677Z,10.70
2022-09-27T13:33:49.323Z,10.90
2022-09-27T13:36:16.443Z,11.00
2022-09-27T13:38:57.796Z,10.90
2022-09-27T13:41:24.998Z,10.70
2022-09-27T13:44:09.960Z,10.50
2022-09-27T13:46:57.271Z,10.60
2022-09-27T13:49:38.234Z,10.50
2022-09-27T13:52:23.849Z,10.60
2022-09-27T13:55:02.457Z,10.70
2022-09-27T13:58:03.644Z,10.70
2022-09-27T14:00:42.626Z,10.90
2022-09-27T14:03:12.560Z,10.90
2022-09-27T14:05:52.200Z,11.00
2022-09-27T14:08:40.316Z,11.00
2022-09-27T14:11:17.257Z,10.90
2022-09-27T14:13:47.066Z,10.90
2022-09-27T14:16:17.090Z,10.80
2022-09-27T14:18:58.250Z,10.90
2022-09-27T14:21:37.710Z,11.10
2022-09-27T14:24:23.587Z,11.20
2022-09-27T14:27:03.545Z,11.30
2022-09-27T14:29:37.943Z,11.30
2022-09-27T14:32:09.418Z,11.30
2022-09-27T14:34:36.565Z,11.10
2022-09-27T14:37:23.004Z,11.20
2022-09-27T14:40:06.676Z,11.00
2022-09-27T14:42:36.940Z,11.30
2022-09-27T14:45:20.163Z,11.40
2022-09-27T14:47:49.375Z,11.40
2022-09-27T14:50:19.981Z,11.30
2022-09-27T14:52:49.087Z,11.00
2022-09-27T14:55:19.273Z,10.90
2022-09-27T14:57:55.764Z,11.10
2022-09-27T15:00:26.531Z,11.30
2022-09-27T15:02:55.935Z,11.10
2022-09-27T15:05:26.737Z,11.00
2022-09-27T15:07:58.208Z,11.00
2022-09-27T15:10:28.273Z,10.80
2022-09-27T15:12:59.995Z,10.70
2022-09-27T15:15:39.885Z,10.80
2022-09-27T15:18:34.546Z,10.70
2022-09-27T15:21:02.032Z,10.80
2022-09-27T15:23:34.853Z,10.80
2022-09-27T15:26:18.484Z,10.70
2022-09-27T15:28:47.823Z,10.80
2022-09-27T15:31:15.434Z,10.80
2022-09-27T15:33:52.662Z,10.90
2022-09-27T15:36:49.929Z,11.00
2022-09-27T15:39:29.186Z,11.20
2022-09-27T15:42:05.760Z,11.20
2022-09-27T15:44:44.282Z,11.20
2022-09-27T15:47:34.469Z,11.10
2022-09-27T15:50:16.929Z,10.90
2022-09-27T15:52:52.258Z,10.80
2022-09-27T15:55:25.232Z,10.60
2022-09-27T15:58:16.701Z,10.20
2022-09-27T16:00:55.497Z,10.00
2022-09-27T16:03:24.509Z,10.00
2022-09-27T16:05:52.297Z,9.90
2022-09-27T16:08:19.491Z,9.90
2022-09-27T16:10:50.298Z,9.90
2022-09-27T16:13:17.461Z,9.90
2022-09-27T16:15:45.790Z,9.90
2022-09-27T16:18:13.971Z,10.00
2022-09-27T16:20:41.205Z,10.00
2022-09-27T16:23:08.356Z,10.00
2022-09-27T16:25:35.645Z,9.90
2022-09-27T16:28:05.274Z,9.90
2022-09-27T16:30:33.242Z,9.90
2022-09-27T16:33:00.387Z,9.90
2022-09-27T16:35:28.353Z,9.80
2022-09-27T16:37:55.608Z,9.60
2022-09-27T16:40:23.354Z,9.40
2022-09-27T16:42:50.591Z,9.30
2022-09-27T16:45:19.514Z,9.30
2022-09-27T16:47:47.493Z,9.40
2022-09-27T16:50:34.460Z,9.40
2022-09-27T16:53:01.849Z,9.40
2022-09-27T16:55:29.377Z,9.40
2022-09-27T16:57:59.789Z,9.40
2022-09-27T17:00:27.677Z,9.50
2022-09-27T17:02:55.002Z,9.60
2022-09-27T17:05:23.132Z,9.60
2022-09-27T17:07:54.810Z,9.60
2022-09-27T17:10:23.140Z,9.50
2022-09-27T17:12:51.123Z,9.40
2022-09-27T17:15:18.532Z,9.30
2022-09-27T17:17:49.253Z,9.30
2022-09-27T17:20:16.716Z,9.40
2022-09-27T17:22:43.861Z,9.40
2022-09-27T17:25:11.049Z,9.50
2022-09-27T17:27:38.273Z,9.50
2022-09-27T17:30:06.915Z,9.50
2022-09-27T17:32:34.910Z,9.50
2022-09-27T17:35:02.714Z,9.50
2022-09-27T17:37:30.277Z,9.50
2022-09-27T17:39:57.727Z,9.50
2022-09-27T17:42:25.389Z,9.40
2022-09-27T17:44:52.757Z,9.50
2022-09-27T17:47:38.606Z,9.40
2022-09-27T17:50:24.530Z,9.50
2022-09-27T17:52:53.442Z,9.40
2022-09-27T17:55:21.708Z,9.30
2022-09-27T17:57:49.817Z,9.20
2022-09-27T18:00:18.623Z,9.20
2022-09-27T18:02:46.059Z,9.20
2022-09-27T18:05:13.392Z,9.20
2022-09-27T18:07:40.601Z,9.10
2022-09-27T18:10:07.975Z,8.90
2022-09-27T18:12:35.330Z,8.80
2022-09-27T18:15:03.171Z,8.80
2022-09-27T18:17:30.800Z,8.70
2022-09-27T18:19:59.885Z,8.80
2022-09-27T18:22:31.219Z,8.80
2022-09-27T18:24:58.743Z,8.90
2022-09-27T18:27:25.942Z,8.90
2022-09-27T18:29:53.937Z,9.00
2022-09-27T18:32:21.117Z,9.00
2022-09-27T18:34:48.317Z,9.00
2022-09-27T18:37:15.532Z,9.00
2022-09-27T18:39:42.689Z,9.00
2022-09-27T18:42:09.866Z,9.10
2022-09-27T18:44:37.035Z,9.10
2022-09-27T18:47:04.339Z,9.10
2022-09-27T18:49:33.987Z,9.10
2022-09-27T18:52:02.656Z,9.10
2022-09-27T18:54:30.158Z,9.10
2022-09-27T18:56:57.291Z,9.10
2022-09-27T18:59:24.540Z,9.10
2022-09-27T19:01:52.296Z,9.10
2022-09-27T19:04:26.848Z,9.20
2022-09-27T19:06:55.642Z,9.30
2022-09-27T19:09:23.363Z,9.30
2022-09-27T19:11:50.549Z,9.30
2022-09-27T19:14:19.912Z,9.20
2022-09-27T19:16:48.357Z,9.30
2022-09-27T19:19:17.416Z,9.30
2022-09-27T19:21:45.547Z,9.30
2022-09-27T19:24:14.079Z,9.30
2022-09-27T19:26:41.587Z,9.30
2022-09-27T19:29:08.884Z,9.30
2022-09-27T19:31:36.406Z,9.20
2022-09-27T19:34:04.844Z,9.30
2022-09-27T19:36:32.012Z,9.20
2022-09-27T19:38:59.888Z,9.20
2022-09-27T19:41:27.368Z,9.20
2022-09-27T19:43:55.722Z,9.20
2022-09-27T19:46:24.883Z,9.20
2022-09-27T19:48:52.931Z,9.20
2022-09-27T19:51:22.715Z,9.20
2022-09-27T19:53:51.118Z,9.20
2022-09-27T19:56:19.260Z,9.20
2022-09-27T19:58:46.483Z,9.10
2022-09-27T20:01:16.575Z,9.10
2022-09-27T20:03:44.451Z,9.10
2022-09-27T20:06:14.484Z,9.10
2022-09-27T20:08:43.062Z,9.20
2022-09-27T20:11:12.859Z,9.20
2022-09-27T20:13:40.337Z,9.20
2022-09-27T20:16:17.439Z,9.30
2022-09-27T20:18:49.721Z,9.30
2022-09-27T20:21:18.279Z,9.30
2022-09-27T20:23:49.102Z,9.30
2022-09-27T20:26:18.821Z,9.40
2022-09-27T20:28:50.822Z,9.30
2022-09-27T20:31:20.421Z,9.30
2022-09-27T20:33:50.711Z,9.20
2022-09-27T20:36:22.220Z,9.20
2022-09-27T20:38:58.213Z,9.10
2022-09-27T20:41:30.922Z,9.20
2022-09-27T20:44:00.490Z,9.20
2022-09-27T20:46:28.056Z,9.30
2022-09-27T20:48:58.768Z,9.40
2022-09-27T20:51:27.421Z,9.30
2022-09-27T20:53:54.888Z,9.30
2022-09-27T20:56:23.522Z,9.40
2022-09-27T20:58:53.067Z,9.40
